sensor_id;sensor_type;location;lat;lon;timestamp;P1;durP1;ratioP1;P2;durP2;ratioP2
48845;SDS011;34665;51.886;5.436;2024-01-30T00:02:08;22.50;;;12.47;;
48845;SDS011;34665;51.886;5.436;2024-01-30T00:04:34;21.50;;;12.47;;
48845;SDS011;34665;51.886;5.436;2024-01-30T00:06:59;26.57;;;13.77;;
48845;SDS011;34665;51.886;5.436;2024-01-30T00:09:24;21.57;;;12.73;;
48845;SDS011;34665;51.886;5.436;2024-01-30T00:11:49;27.40;;;12.70;;
48845;SDS011;34665;51.886;5.436;2024-01-30T00:14:15;23.27;;;11.90;;
48845;SDS011;34665;51.886;5.436;2024-01-30T00:16:40;20.77;;;11.57;;
48845;SDS011;34665;51.886;5.436;2024-01-30T00:19:05;23.70;;;13.30;;
48845;SDS011;34665;51.886;5.436;2024-01-30T00:21:31;24.17;;;12.35;;
48845;SDS011;34665;51.886;5.436;2024-01-30T00:23:56;25.03;;;13.80;;
48845;SDS011;34665;51.886;5.436;2024-01-30T00:26:22;23.80;;;12.52;;
48845;SDS011;34665;51.886;5.436;2024-01-30T00:28:48;22.30;;;12.20;;
48845;SDS011;34665;51.886;5.436;2024-01-30T00:31:13;24.33;;;12.53;;
48845;SDS011;34665;51.886;5.436;2024-01-30T00:33:39;20.52;;;12.38;;
48845;SDS011;34665;51.886;5.436;2024-01-30T00:36:05;25.73;;;13.05;;
48845;SDS011;34665;51.886;5.436;2024-01-30T00:38:30;24.80;;;12.48;;
48845;SDS011;34665;51.886;5.436;2024-01-30T00:40:56;28.27;;;12.90;;
48845;SDS011;34665;51.886;5.436;2024-01-30T00:43:21;23.80;;;12.70;;
48845;SDS011;34665;51.886;5.436;2024-01-30T00:45:47;24.63;;;12.38;;
48845;SDS011;34665;51.886;5.436;2024-01-30T00:48:12;22.20;;;12.27;;
48845;SDS011;34665;51.886;5.436;2024-01-30T00:50:38;20.47;;;11.90;;
48845;SDS011;34665;51.886;5.436;2024-01-30T00:53:03;26.42;;;12.35;;
48845;SDS011;34665;51.886;5.436;2024-01-30T00:55:29;21.70;;;11.87;;
48845;SDS011;34665;51.886;5.436;2024-01-30T00:57:54;24.87;;;12.97;;
48845;SDS011;34665;51.886;5.436;2024-01-30T01:00:20;26.45;;;12.80;;
48845;SDS011;34665;51.886;5.436;2024-01-30T01:02:46;23.77;;;12.05;;
48845;SDS011;34665;51.886;5.436;2024-01-30T01:05:11;28.93;;;12.10;;
48845;SDS011;34665;51.886;5.436;2024-01-30T01:07:37;23.15;;;11.88;;
48845;SDS011;34665;51.886;5.436;2024-01-30T01:10:03;21.53;;;11.50;;
48845;SDS011;34665;51.886;5.436;2024-01-30T01:12:29;24.38;;;12.48;;
48845;SDS011;34665;51.886;5.436;2024-01-30T01:14:55;21.65;;;12.85;;
48845;SDS011;34665;51.886;5.436;2024-01-30T01:17:21;21.77;;;11.53;;
48845;SDS011;34665;51.886;5.436;2024-01-30T01:19:46;24.37;;;11.87;;
48845;SDS011;34665;51.886;5.436;2024-01-30T01:22:12;22.53;;;11.60;;
48845;SDS011;34665;51.886;5.436;2024-01-30T01:24:37;23.00;;;11.83;;
48845;SDS011;34665;51.886;5.436;2024-01-30T01:27:03;19.98;;;11.27;;
48845;SDS011;34665;51.886;5.436;2024-01-30T01:29:28;23.20;;;12.52;;
48845;SDS011;34665;51.886;5.436;2024-01-30T01:31:55;25.20;;;12.02;;
48845;SDS011;34665;51.886;5.436;2024-01-30T01:34:21;21.63;;;11.52;;
48845;SDS011;34665;51.886;5.436;2024-01-30T01:36:47;21.65;;;10.95;;
48845;SDS011;34665;51.886;5.436;2024-01-30T01:39:12;20.40;;;11.32;;
48845;SDS011;34665;51.886;5.436;2024-01-30T01:41:38;22.37;;;11.03;;
48845;SDS011;34665;51.886;5.436;2024-01-30T01:44:03;21.35;;;10.63;;
48845;SDS011;34665;51.886;5.436;2024-01-30T01:46:30;23.13;;;12.10;;
48845;SDS011;34665;51.886;5.436;2024-01-30T01:48:55;19.92;;;10.80;;
48845;SDS011;34665;51.886;5.436;2024-01-30T01:51:21;20.45;;;10.98;;
48845;SDS011;34665;51.886;5.436;2024-01-30T01:53:48;22.15;;;10.98;;
48845;SDS011;34665;51.886;5.436;2024-01-30T01:56:13;18.90;;;10.30;;
48845;SDS011;34665;51.886;5.436;2024-01-30T01:58:39;18.30;;;9.60;;
48845;SDS011;34665;51.886;5.436;2024-01-30T02:01:06;17.02;;;9.55;;
48845;SDS011;34665;51.886;5.436;2024-01-30T02:03:33;18.63;;;9.98;;
48845;SDS011;34665;51.886;5.436;2024-01-30T02:05:58;19.73;;;10.30;;
48845;SDS011;34665;51.886;5.436;2024-01-30T02:08:24;21.42;;;10.65;;
48845;SDS011;34665;51.886;5.436;2024-01-30T02:10:50;19.33;;;9.83;;
48845;SDS011;34665;51.886;5.436;2024-01-30T02:13:15;15.70;;;8.97;;
48845;SDS011;34665;51.886;5.436;2024-01-30T02:15:41;18.85;;;9.88;;
48845;SDS011;34665;51.886;5.436;2024-01-30T02:18:06;16.53;;;9.40;;
48845;SDS011;34665;51.886;5.436;2024-01-30T02:20:32;15.83;;;8.93;;
48845;SDS011;34665;51.886;5.436;2024-01-30T02:22:59;20.27;;;10.48;;
48845;SDS011;34665;51.886;5.436;2024-01-30T02:25:38;20.73;;;9.90;;
48845;SDS011;34665;51.886;5.436;2024-01-30T02:28:03;19.35;;;10.30;;
48845;SDS011;34665;51.886;5.436;2024-01-30T02:30:28;22.00;;;10.37;;
48845;SDS011;34665;51.886;5.436;2024-01-30T02:32:54;17.60;;;9.63;;
48845;SDS011;34665;51.886;5.436;2024-01-30T02:35:19;20.00;;;10.43;;
48845;SDS011;34665;51.886;5.436;2024-01-30T02:37:44;19.03;;;9.77;;
48845;SDS011;34665;51.886;5.436;2024-01-30T02:40:10;21.07;;;9.43;;
48845;SDS011;34665;51.886;5.436;2024-01-30T02:42:35;18.98;;;9.50;;
48845;SDS011;34665;51.886;5.436;2024-01-30T02:45:01;18.73;;;9.57;;
48845;SDS011;34665;51.886;5.436;2024-01-30T02:47:27;23.52;;;10.23;;
48845;SDS011;34665;51.886;5.436;2024-01-30T02:49:52;21.02;;;10.57;;
48845;SDS011;34665;51.886;5.436;2024-01-30T02:52:17;17.63;;;9.83;;
48845;SDS011;34665;51.886;5.436;2024-01-30T02:54:43;17.63;;;8.77;;
48845;SDS011;34665;51.886;5.436;2024-01-30T02:57:08;18.73;;;9.47;;
48845;SDS011;34665;51.886;5.436;2024-01-30T02:59:34;15.23;;;9.23;;
48845;SDS011;34665;51.886;5.436;2024-01-30T03:02:01;21.48;;;9.93;;
48845;SDS011;34665;51.886;5.436;2024-01-30T03:04:26;19.65;;;10.15;;
48845;SDS011;34665;51.886;5.436;2024-01-30T03:06:51;19.60;;;9.80;;
48845;SDS011;34665;51.886;5.436;2024-01-30T03:09:17;17.23;;;8.98;;
48845;SDS011;34665;51.886;5.436;2024-01-30T03:11:43;18.43;;;9.50;;
48845;SDS011;34665;51.886;5.436;2024-01-30T03:14:08;19.70;;;10.03;;
48845;SDS011;34665;51.886;5.436;2024-01-30T03:16:36;19.92;;;9.93;;
48845;SDS011;34665;51.886;5.436;2024-01-30T03:19:02;19.98;;;9.10;;
48845;SDS011;34665;51.886;5.436;2024-01-30T03:21:28;20.70;;;9.38;;
48845;SDS011;34665;51.886;5.436;2024-01-30T03:23:54;19.40;;;9.90;;
48845;SDS011;34665;51.886;5.436;2024-01-30T03:26:19;15.70;;;9.00;;
48845;SDS011;34665;51.886;5.436;2024-01-30T03:28:45;15.47;;;9.20;;
48845;SDS011;34665;51.886;5.436;2024-01-30T03:31:10;19.20;;;9.40;;
48845;SDS011;34665;51.886;5.436;2024-01-30T03:33:36;18.03;;;9.17;;
48845;SDS011;34665;51.886;5.436;2024-01-30T03:36:04;19.58;;;8.93;;
48845;SDS011;34665;51.886;5.436;2024-01-30T03:38:30;18.40;;;9.10;;
48845;SDS011;34665;51.886;5.436;2024-01-30T03:40:58;18.55;;;8.95;;
48845;SDS011;34665;51.886;5.436;2024-01-30T03:43:24;17.58;;;8.93;;
48845;SDS011;34665;51.886;5.436;2024-01-30T03:45:49;18.10;;;9.97;;
48845;SDS011;34665;51.886;5.436;2024-01-30T03:48:15;18.40;;;9.55;;
48845;SDS011;34665;51.886;5.436;2024-01-30T03:50:40;19.92;;;8.88;;
48845;SDS011;34665;51.886;5.436;2024-01-30T03:53:05;19.50;;;8.97;;
48845;SDS011;34665;51.886;5.436;2024-01-30T03:55:31;22.38;;;9.75;;
48845;SDS011;34665;51.886;5.436;2024-01-30T03:57:57;13.57;;;7.83;;
48845;SDS011;34665;51.886;5.436;2024-01-30T04:00:22;19.03;;;8.97;;
48845;SDS011;34665;51.886;5.436;2024-01-30T04:02:48;17.38;;;8.63;;
48845;SDS011;34665;51.886;5.436;2024-01-30T04:05:13;16.80;;;9.00;;
48845;SDS011;34665;51.886;5.436;2024-01-30T04:07:39;18.87;;;9.73;;
48845;SDS011;34665;51.886;5.436;2024-01-30T04:10:04;20.23;;;9.80;;
48845;SDS011;34665;51.886;5.436;2024-01-30T04:12:32;21.10;;;8.93;;
48845;SDS011;34665;51.886;5.436;2024-01-30T04:14:58;13.77;;;7.50;;
48845;SDS011;34665;51.886;5.436;2024-01-30T04:17:23;18.07;;;9.27;;
48845;SDS011;34665;51.886;5.436;2024-01-30T04:19:48;18.60;;;9.33;;
48845;SDS011;34665;51.886;5.436;2024-01-30T04:22:13;16.77;;;9.10;;
48845;SDS011;34665;51.886;5.436;2024-01-30T04:24:39;18.80;;;9.30;;
48845;SDS011;34665;51.886;5.436;2024-01-30T04:27:04;17.00;;;9.00;;
48845;SDS011;34665;51.886;5.436;2024-01-30T04:29:30;17.83;;;9.23;;
48845;SDS011;34665;51.886;5.436;2024-01-30T04:31:55;17.60;;;8.20;;
48845;SDS011;34665;51.886;5.436;2024-01-30T04:34:20;16.93;;;8.43;;
48845;SDS011;34665;51.886;5.436;2024-01-30T04:36:46;18.80;;;8.80;;
48845;SDS011;34665;51.886;5.436;2024-01-30T04:39:11;19.27;;;8.67;;
48845;SDS011;34665;51.886;5.436;2024-01-30T04:41:37;14.52;;;7.75;;
48845;SDS011;34665;51.886;5.436;2024-01-30T04:44:03;15.10;;;8.55;;
48845;SDS011;34665;51.886;5.436;2024-01-30T04:46:28;15.80;;;9.13;;
48845;SDS011;34665;51.886;5.436;2024-01-30T04:48:54;16.50;;;8.70;;
48845;SDS011;34665;51.886;5.436;2024-01-30T04:51:19;19.03;;;9.10;;
48845;SDS011;34665;51.886;5.436;2024-01-30T04:53:45;18.10;;;8.73;;
48845;SDS011;34665;51.886;5.436;2024-01-30T04:56:10;14.03;;;7.33;;
48845;SDS011;34665;51.886;5.436;2024-01-30T04:58:35;14.80;;;8.90;;
48845;SDS011;34665;51.886;5.436;2024-01-30T05:01:00;24.50;;;9.20;;
48845;SDS011;34665;51.886;5.436;2024-01-30T05:03:27;16.25;;;8.10;;
48845;SDS011;34665;51.886;5.436;2024-01-30T05:05:52;15.53;;;7.60;;
48845;SDS011;34665;51.886;5.436;2024-01-30T05:08:18;16.87;;;8.70;;
48845;SDS011;34665;51.886;5.436;2024-01-30T05:10:43;21.67;;;9.38;;
48845;SDS011;34665;51.886;5.436;2024-01-30T05:13:10;17.13;;;8.32;;
48845;SDS011;34665;51.886;5.436;2024-01-30T05:15:35;17.63;;;9.27;;
48845;SDS011;34665;51.886;5.436;2024-01-30T05:18:00;17.80;;;8.53;;
48845;SDS011;34665;51.886;5.436;2024-01-30T05:20:26;16.40;;;8.77;;
48845;SDS011;34665;51.886;5.436;2024-01-30T05:22:53;23.20;;;9.15;;
48845;SDS011;34665;51.886;5.436;2024-01-30T05:25:19;17.03;;;9.43;;
48845;SDS011;34665;51.886;5.436;2024-01-30T05:27:44;19.67;;;8.45;;
48845;SDS011;34665;51.886;5.436;2024-01-30T05:30:10;14.70;;;8.43;;
48845;SDS011;34665;51.886;5.436;2024-01-30T05:32:35;13.45;;;7.95;;
48845;SDS011;34665;51.886;5.436;2024-01-30T05:35:01;15.70;;;8.73;;
48845;SDS011;34665;51.886;5.436;2024-01-30T05:37:27;16.67;;;8.52;;
48845;SDS011;34665;51.886;5.436;2024-01-30T05:39:53;14.43;;;8.43;;
48845;SDS011;34665;51.886;5.436;2024-01-30T05:42:18;15.93;;;8.47;;
48845;SDS011;34665;51.886;5.436;2024-01-30T05:44:44;14.82;;;8.15;;
48845;SDS011;34665;51.886;5.436;2024-01-30T05:47:09;14.90;;;8.07;;
48845;SDS011;34665;51.886;5.436;2024-01-30T05:49:34;17.87;;;9.00;;
48845;SDS011;34665;51.886;5.436;2024-01-30T05:52:00;20.27;;;9.37;;
48845;SDS011;34665;51.886;5.436;2024-01-30T05:54:26;18.15;;;9.20;;
48845;SDS011;34665;51.886;5.436;2024-01-30T05:56:51;14.85;;;7.25;;
48845;SDS011;34665;51.886;5.436;2024-01-30T05:59:17;16.73;;;9.03;;
48845;SDS011;34665;51.886;5.436;2024-01-30T06:01:46;16.40;;;7.97;;
48845;SDS011;34665;51.886;5.436;2024-01-30T06:04:11;15.23;;;9.07;;
48845;SDS011;34665;51.886;5.436;2024-01-30T06:06:37;16.30;;;7.97;;
48845;SDS011;34665;51.886;5.436;2024-01-30T06:09:02;20.47;;;8.37;;
48845;SDS011;34665;51.886;5.436;2024-01-30T06:11:28;16.63;;;8.73;;
48845;SDS011;34665;51.886;5.436;2024-01-30T06:13:53;16.80;;;8.40;;
48845;SDS011;34665;51.886;5.436;2024-01-30T06:16:19;21.70;;;9.63;;
48845;SDS011;34665;51.886;5.436;2024-01-30T06:18:46;15.53;;;8.23;;
48845;SDS011;34665;51.886;5.436;2024-01-30T06:21:12;18.63;;;8.80;;
48845;SDS011;34665;51.886;5.436;2024-01-30T06:23:37;15.13;;;8.67;;
48845;SDS011;34665;51.886;5.436;2024-01-30T06:26:03;16.20;;;9.05;;
48845;SDS011;34665;51.886;5.436;2024-01-30T06:28:28;22.30;;;9.80;;
48845;SDS011;34665;51.886;5.436;2024-01-30T06:30:54;18.92;;;8.65;;
48845;SDS011;34665;51.886;5.436;2024-01-30T06:33:19;20.90;;;10.43;;
48845;SDS011;34665;51.886;5.436;2024-01-30T06:35:45;22.70;;;11.27;;
48845;SDS011;34665;51.886;5.436;2024-01-30T06:38:11;18.95;;;11.40;;
48845;SDS011;34665;51.886;5.436;2024-01-30T06:40:37;19.60;;;11.07;;
48845;SDS011;34665;51.886;5.436;2024-01-30T06:43:02;20.00;;;11.00;;
48845;SDS011;34665;51.886;5.436;2024-01-30T06:45:28;23.17;;;9.70;;
48845;SDS011;34665;51.886;5.436;2024-01-30T06:47:53;18.47;;;10.20;;
48845;SDS011;34665;51.886;5.436;2024-01-30T06:50:19;25.13;;;10.55;;
48845;SDS011;34665;51.886;5.436;2024-01-30T06:52:45;17.27;;;9.43;;
48845;SDS011;34665;51.886;5.436;2024-01-30T06:55:10;18.53;;;10.37;;
48845;SDS011;34665;51.886;5.436;2024-01-30T06:57:36;18.27;;;9.15;;
48845;SDS011;34665;51.886;5.436;2024-01-30T07:00:01;17.20;;;8.10;;
48845;SDS011;34665;51.886;5.436;2024-01-30T07:02:27;15.27;;;8.70;;
48845;SDS011;34665;51.886;5.436;2024-01-30T07:04:53;15.02;;;7.78;;
48845;SDS011;34665;51.886;5.436;2024-01-30T07:07:18;15.60;;;8.33;;
48845;SDS011;34665;51.886;5.436;2024-01-30T07:09:44;17.40;;;8.20;;
48845;SDS011;34665;51.886;5.436;2024-01-30T07:12:09;19.08;;;7.63;;
48845;SDS011;34665;51.886;5.436;2024-01-30T07:14:35;14.27;;;7.80;;
48845;SDS011;34665;51.886;5.436;2024-01-30T07:17:00;20.17;;;7.70;;
48845;SDS011;34665;51.886;5.436;2024-01-30T07:19:26;15.10;;;7.70;;
48845;SDS011;34665;51.886;5.436;2024-01-30T07:21:51;13.13;;;7.50;;
48845;SDS011;34665;51.886;5.436;2024-01-30T07:24:17;12.60;;;7.33;;
48845;SDS011;34665;51.886;5.436;2024-01-30T07:26:42;21.13;;;7.72;;
48845;SDS011;34665;51.886;5.436;2024-01-30T07:29:08;16.70;;;8.07;;
48845;SDS011;34665;51.886;5.436;2024-01-30T07:31:33;16.83;;;8.67;;
48845;SDS011;34665;51.886;5.436;2024-01-30T07:36:26;21.90;;;9.10;;
48845;SDS011;34665;51.886;5.436;2024-01-30T07:38:51;16.73;;;7.93;;
48845;SDS011;34665;51.886;5.436;2024-01-30T07:41:20;19.63;;;8.97;;
48845;SDS011;34665;51.886;5.436;2024-01-30T07:43:45;14.47;;;7.47;;
48845;SDS011;34665;51.886;5.436;2024-01-30T07:46:10;19.30;;;9.70;;
48845;SDS011;34665;51.886;5.436;2024-01-30T07:48:36;14.40;;;7.57;;
48845;SDS011;34665;51.886;5.436;2024-01-30T07:51:02;20.53;;;8.83;;
48845;SDS011;34665;51.886;5.436;2024-01-30T07:53:29;15.90;;;8.53;;
48845;SDS011;34665;51.886;5.436;2024-01-30T07:55:54;13.57;;;7.45;;
48845;SDS011;34665;51.886;5.436;2024-01-30T07:58:20;21.13;;;7.67;;
48845;SDS011;34665;51.886;5.436;2024-01-30T08:00:45;20.00;;;8.05;;
48845;SDS011;34665;51.886;5.436;2024-01-30T08:03:10;16.30;;;8.63;;
48845;SDS011;34665;51.886;5.436;2024-01-30T08:05:37;13.73;;;7.97;;
48845;SDS011;34665;51.886;5.436;2024-01-30T08:08:04;14.40;;;8.20;;
48845;SDS011;34665;51.886;5.436;2024-01-30T08:10:29;20.48;;;8.90;;
48845;SDS011;34665;51.886;5.436;2024-01-30T08:12:55;18.02;;;7.68;;
48845;SDS011;34665;51.886;5.436;2024-01-30T08:15:20;15.77;;;7.67;;
48845;SDS011;34665;51.886;5.436;2024-01-30T08:17:46;13.57;;;7.47;;
48845;SDS011;34665;51.886;5.436;2024-01-30T08:20:11;21.83;;;7.90;;
48845;SDS011;34665;51.886;5.436;2024-01-30T08:22:40;18.23;;;8.32;;
48845;SDS011;34665;51.886;5.436;2024-01-30T08:25:06;16.97;;;8.23;;
48845;SDS011;34665;51.886;5.436;2024-01-30T08:27:31;13.60;;;8.45;;
48845;SDS011;34665;51.886;5.436;2024-01-30T08:29:57;19.70;;;9.07;;
48845;SDS011;34665;51.886;5.436;2024-01-30T08:32:22;16.50;;;8.03;;
48845;SDS011;34665;51.886;5.436;2024-01-30T08:34:49;17.50;;;7.93;;
48845;SDS011;34665;51.886;5.436;2024-01-30T08:37:14;18.90;;;8.07;;
48845;SDS011;34665;51.886;5.436;2024-01-30T08:39:42;21.07;;;8.60;;
48845;SDS011;34665;51.886;5.436;2024-01-30T08:42:07;16.77;;;7.82;;
48845;SDS011;34665;51.886;5.436;2024-01-30T08:44:33;18.63;;;7.43;;
48845;SDS011;34665;51.886;5.436;2024-01-30T08:46:58;19.50;;;7.30;;
48845;SDS011;34665;51.886;5.436;2024-01-30T08:49:24;20.30;;;8.05;;
48845;SDS011;34665;51.886;5.436;2024-01-30T08:51:49;16.20;;;8.13;;
48845;SDS011;34665;51.886;5.436;2024-01-30T08:54:15;19.35;;;9.18;;
48845;SDS011;34665;51.886;5.436;2024-01-30T08:56:41;21.75;;;9.20;;
48845;SDS011;34665;51.886;5.436;2024-01-30T08:59:06;17.50;;;8.57;;
48845;SDS011;34665;51.886;5.436;2024-01-30T09:01:32;19.23;;;8.87;;
48845;SDS011;34665;51.886;5.436;2024-01-30T09:03:57;22.30;;;9.27;;
48845;SDS011;34665;51.886;5.436;2024-01-30T09:06:23;23.47;;;10.50;;
48845;SDS011;34665;51.886;5.436;2024-01-30T09:08:50;22.33;;;8.90;;
48845;SDS011;34665;51.886;5.436;2024-01-30T09:11:15;25.93;;;11.03;;
48845;SDS011;34665;51.886;5.436;2024-01-30T09:13:41;22.23;;;9.53;;
48845;SDS011;34665;51.886;5.436;2024-01-30T09:16:07;26.90;;;9.93;;
48845;SDS011;34665;51.886;5.436;2024-01-30T09:18:32;23.40;;;10.70;;
48845;SDS011;34665;51.886;5.436;2024-01-30T09:20:58;27.55;;;12.43;;
48845;SDS011;34665;51.886;5.436;2024-01-30T09:23:24;21.80;;;10.70;;
48845;SDS011;34665;51.886;5.436;2024-01-30T09:25:50;29.65;;;11.20;;
48845;SDS011;34665;51.886;5.436;2024-01-30T09:28:17;21.93;;;10.93;;
48845;SDS011;34665;51.886;5.436;2024-01-30T09:30:43;23.13;;;9.97;;
48845;SDS011;34665;51.886;5.436;2024-01-30T09:33:09;23.93;;;9.70;;
48845;SDS011;34665;51.886;5.436;2024-01-30T09:35:35;27.03;;;9.47;;
48845;SDS011;34665;51.886;5.436;2024-01-30T09:38:02;21.43;;;8.90;;
48845;SDS011;34665;51.886;5.436;2024-01-30T09:40:28;17.67;;;8.85;;
48845;SDS011;34665;51.886;5.436;2024-01-30T09:42:53;23.42;;;9.15;;
48845;SDS011;34665;51.886;5.436;2024-01-30T09:45:19;22.83;;;9.00;;
48845;SDS011;34665;51.886;5.436;2024-01-30T09:47:45;21.05;;;9.55;;
48845;SDS011;34665;51.886;5.436;2024-01-30T09:50:12;20.10;;;8.70;;
48845;SDS011;34665;51.886;5.436;2024-01-30T09:55:03;20.90;;;7.90;;
48845;SDS011;34665;51.886;5.436;2024-01-30T09:57:29;16.08;;;8.82;;
48845;SDS011;34665;51.886;5.436;2024-01-30T09:59:55;16.75;;;8.02;;
48845;SDS011;34665;51.886;5.436;2024-01-30T10:02:21;15.18;;;7.03;;
48845;SDS011;34665;51.886;5.436;2024-01-30T10:04:50;19.55;;;7.95;;
48845;SDS011;34665;51.886;5.436;2024-01-30T10:07:19;18.83;;;7.23;;
48845;SDS011;34665;51.886;5.436;2024-01-30T10:09:45;22.73;;;8.50;;
48845;SDS011;34665;51.886;5.436;2024-01-30T10:12:11;16.35;;;7.68;;
48845;SDS011;34665;51.886;5.436;2024-01-30T10:14:37;16.73;;;6.53;;
48845;SDS011;34665;51.886;5.436;2024-01-30T10:17:03;12.38;;;6.25;;
48845;SDS011;34665;51.886;5.436;2024-01-30T10:19:29;19.58;;;7.53;;
48845;SDS011;34665;51.886;5.436;2024-01-30T10:21:55;18.70;;;7.82;;
48845;SDS011;34665;51.886;5.436;2024-01-30T10:24:24;20.45;;;8.30;;
48845;SDS011;34665;51.886;5.436;2024-01-30T10:26:50;11.90;;;6.20;;
48845;SDS011;34665;51.886;5.436;2024-01-30T10:29:16;17.63;;;7.50;;
48845;SDS011;34665;51.886;5.436;2024-01-30T10:31:42;12.53;;;6.73;;
48845;SDS011;34665;51.886;5.436;2024-01-30T10:34:08;17.23;;;6.53;;
48845;SDS011;34665;51.886;5.436;2024-01-30T10:36:33;15.03;;;7.90;;
48845;SDS011;34665;51.886;5.436;2024-01-30T10:39:04;17.70;;;7.57;;
48845;SDS011;34665;51.886;5.436;2024-01-30T10:41:31;18.77;;;8.37;;
48845;SDS011;34665;51.886;5.436;2024-01-30T10:44:07;16.83;;;8.13;;
48845;SDS011;34665;51.886;5.436;2024-01-30T10:46:33;19.20;;;8.33;;
48845;SDS011;34665;51.886;5.436;2024-01-30T10:49:00;20.73;;;8.77;;
48845;SDS011;34665;51.886;5.436;2024-01-30T10:51:26;22.23;;;9.20;;
48845;SDS011;34665;51.886;5.436;2024-01-30T10:53:52;21.58;;;8.57;;
48845;SDS011;34665;51.886;5.436;2024-01-30T10:56:18;15.40;;;8.18;;
48845;SDS011;34665;51.886;5.436;2024-01-30T10:58:46;16.37;;;8.13;;
48845;SDS011;34665;51.886;5.436;2024-01-30T11:01:12;15.98;;;8.63;;
48845;SDS011;34665;51.886;5.436;2024-01-30T11:03:38;18.63;;;9.10;;
48845;SDS011;34665;51.886;5.436;2024-01-30T11:06:04;18.60;;;8.77;;
48845;SDS011;34665;51.886;5.436;2024-01-30T11:08:31;20.13;;;8.25;;
48845;SDS011;34665;51.886;5.436;2024-01-30T11:10:57;15.57;;;7.70;;
48845;SDS011;34665;51.886;5.436;2024-01-30T11:13:29;13.88;;;8.05;;
48845;SDS011;34665;51.886;5.436;2024-01-30T11:15:55;20.93;;;7.67;;
48845;SDS011;34665;51.886;5.436;2024-01-30T11:18:24;15.70;;;7.57;;
48845;SDS011;34665;51.886;5.436;2024-01-30T11:20:50;17.53;;;7.53;;
48845;SDS011;34665;51.886;5.436;2024-01-30T11:23:16;17.03;;;7.43;;
48845;SDS011;34665;51.886;5.436;2024-01-30T11:25:43;14.20;;;6.30;;
48845;SDS011;34665;51.886;5.436;2024-01-30T11:28:13;14.57;;;7.37;;
48845;SDS011;34665;51.886;5.436;2024-01-30T11:30:38;9.00;;;6.47;;
48845;SDS011;34665;51.886;5.436;2024-01-30T11:35:30;17.70;;;7.38;;
48845;SDS011;34665;51.886;5.436;2024-01-30T11:37:56;26.53;;;7.83;;
48845;SDS011;34665;51.886;5.436;2024-01-30T11:40:22;14.93;;;6.15;;
48845;SDS011;34665;51.886;5.436;2024-01-30T11:42:49;13.43;;;6.10;;
48845;SDS011;34665;51.886;5.436;2024-01-30T11:45:17;11.40;;;6.22;;
48845;SDS011;34665;51.886;5.436;2024-01-30T11:47:42;21.43;;;7.30;;
48845;SDS011;34665;51.886;5.436;2024-01-30T11:50:08;17.48;;;7.05;;
48845;SDS011;34665;51.886;5.436;2024-01-30T11:52:36;13.90;;;6.90;;
48845;SDS011;34665;51.886;5.436;2024-01-30T11:55:02;19.25;;;8.48;;
48845;SDS011;34665;51.886;5.436;2024-01-30T11:57:28;24.00;;;7.78;;
48845;SDS011;34665;51.886;5.436;2024-01-30T11:59:54;11.43;;;3.53;;
48845;SDS011;34665;51.886;5.436;2024-01-30T12:02:19;10.80;;;2.70;;
48845;SDS011;34665;51.886;5.436;2024-01-30T12:04:45;7.93;;;3.25;;
48845;SDS011;34665;51.886;5.436;2024-01-30T12:07:10;9.23;;;3.00;;
48845;SDS011;34665;51.886;5.436;2024-01-30T12:09:36;13.95;;;4.32;;
48845;SDS011;34665;51.886;5.436;2024-01-30T12:12:02;12.03;;;3.80;;
48845;SDS011;34665;51.886;5.436;2024-01-30T12:14:27;12.00;;;4.28;;
48845;SDS011;34665;51.886;5.436;2024-01-30T12:16:53;12.90;;;3.25;;
48845;SDS011;34665;51.886;5.436;2024-01-30T12:19:25;16.13;;;4.78;;
48845;SDS011;34665;51.886;5.436;2024-01-30T12:21:54;13.20;;;4.63;;
48845;SDS011;34665;51.886;5.436;2024-01-30T12:24:19;12.77;;;3.47;;
48845;SDS011;34665;51.886;5.436;2024-01-30T12:26:45;9.03;;;3.13;;
48845;SDS011;34665;51.886;5.436;2024-01-30T12:29:10;6.90;;;3.27;;
48845;SDS011;34665;51.886;5.436;2024-01-30T12:31:35;9.83;;;2.50;;
48845;SDS011;34665;51.886;5.436;2024-01-30T12:34:01;13.47;;;3.13;;
48845;SDS011;34665;51.886;5.436;2024-01-30T12:36:28;10.23;;;2.75;;
48845;SDS011;34665;51.886;5.436;2024-01-30T12:38:54;9.03;;;2.60;;
48845;SDS011;34665;51.886;5.436;2024-01-30T12:41:19;5.23;;;1.80;;
48845;SDS011;34665;51.886;5.436;2024-01-30T12:43:45;6.78;;;1.52;;
48845;SDS011;34665;51.886;5.436;2024-01-30T12:46:10;2.90;;;1.35;;
48845;SDS011;34665;51.886;5.436;2024-01-30T12:48:36;2.53;;;1.13;;
48845;SDS011;34665;51.886;5.436;2024-01-30T12:51:01;3.72;;;1.17;;
48845;SDS011;34665;51.886;5.436;2024-01-30T12:53:28;3.23;;;1.07;;
48845;SDS011;34665;51.886;5.436;2024-01-30T12:55:54;9.38;;;1.45;;
48845;SDS011;34665;51.886;5.436;2024-01-30T12:58:19;2.23;;;0.90;;
48845;SDS011;34665;51.886;5.436;2024-01-30T13:00:45;3.93;;;1.23;;
48845;SDS011;34665;51.886;5.436;2024-01-30T13:03:10;1.70;;;1.10;;
48845;SDS011;34665;51.886;5.436;2024-01-30T13:05:36;14.70;;;4.22;;
48845;SDS011;34665;51.886;5.436;2024-01-30T13:08:01;12.02;;;3.17;;
48845;SDS011;34665;51.886;5.436;2024-01-30T13:10:27;17.95;;;4.00;;
48845;SDS011;34665;51.886;5.436;2024-01-30T13:12:53;19.43;;;6.13;;
48845;SDS011;34665;51.886;5.436;2024-01-30T13:15:18;23.00;;;4.55;;
48845;SDS011;34665;51.886;5.436;2024-01-30T13:17:44;21.07;;;5.70;;
48845;SDS011;34665;51.886;5.436;2024-01-30T13:20:13;12.37;;;4.10;;
48845;SDS011;34665;51.886;5.436;2024-01-30T13:22:43;10.70;;;4.20;;
48845;SDS011;34665;51.886;5.436;2024-01-30T13:25:08;14.07;;;4.45;;
48845;SDS011;34665;51.886;5.436;2024-01-30T13:27:33;23.43;;;5.37;;
48845;SDS011;34665;51.886;5.436;2024-01-30T13:29:58;13.93;;;4.60;;
48845;SDS011;34665;51.886;5.436;2024-01-30T13:32:24;25.47;;;4.07;;
48845;SDS011;34665;51.886;5.436;2024-01-30T13:34:49;12.93;;;3.63;;
48845;SDS011;34665;51.886;5.436;2024-01-30T13:37:15;12.93;;;3.83;;
48845;SDS011;34665;51.886;5.436;2024-01-30T13:39:40;8.05;;;3.67;;
48845;SDS011;34665;51.886;5.436;2024-01-30T13:42:06;9.60;;;3.17;;
48845;SDS011;34665;51.886;5.436;2024-01-30T13:44:31;14.83;;;4.07;;
48845;SDS011;34665;51.886;5.436;2024-01-30T13:46:57;11.38;;;3.80;;
48845;SDS011;34665;51.886;5.436;2024-01-30T13:49:23;9.27;;;3.40;;
48845;SDS011;34665;51.886;5.436;2024-01-30T13:51:49;9.33;;;3.60;;
48845;SDS011;34665;51.886;5.436;2024-01-30T13:54:14;9.70;;;4.28;;
48845;SDS011;34665;51.886;5.436;2024-01-30T13:56:40;12.68;;;4.05;;
48845;SDS011;34665;51.886;5.436;2024-01-30T13:59:06;7.50;;;3.42;;
48845;SDS011;34665;51.886;5.436;2024-01-30T14:01:32;10.52;;;5.38;;
48845;SDS011;34665;51.886;5.436;2024-01-30T14:03:58;11.63;;;3.42;;
48845;SDS011;34665;51.886;5.436;2024-01-30T14:06:23;8.65;;;3.40;;
48845;SDS011;34665;51.886;5.436;2024-01-30T14:08:49;7.95;;;3.85;;
48845;SDS011;34665;51.886;5.436;2024-01-30T14:11:14;8.73;;;4.38;;
48845;SDS011;34665;51.886;5.436;2024-01-30T14:13:40;19.15;;;4.50;;
48845;SDS011;34665;51.886;5.436;2024-01-30T14:16:05;8.23;;;3.07;;
48845;SDS011;34665;51.886;5.436;2024-01-30T14:18:31;11.35;;;4.25;;
48845;SDS011;34665;51.886;5.436;2024-01-30T14:20:56;9.23;;;3.42;;
48845;SDS011;34665;51.886;5.436;2024-01-30T14:23:22;8.90;;;3.17;;
48845;SDS011;34665;51.886;5.436;2024-01-30T14:25:48;13.35;;;4.10;;
48845;SDS011;34665;51.886;5.436;2024-01-30T14:28:14;13.73;;;3.80;;
48845;SDS011;34665;51.886;5.436;2024-01-30T14:30:40;10.47;;;3.00;;
48845;SDS011;34665;51.886;5.436;2024-01-30T14:33:05;11.63;;;4.10;;